Archival Weather

Norman Y Mineta San Jose Intl

San Jose, California (KSJC)

Report from: Tuesday, February 13, 2024 3:53 PM PST
Current time: Friday, June 21, 2024 1:20 AM PDT

Current weather – Weather history – Daily summaries
Weather forecast

Temperature15.6°C (60.1°F)
Dew point7.2°C (45.0°F)
Winds 10 kts (5.1 m/s, 11.5 mph) North-Northwest (330°)
Visibility10 mi. (16.1 km)
Clouds Few clouds 3,500 ft. (1,067 m)
Few clouds 5,000 ft. (1,524 m)
Ceiling: Broken clouds 9,000 ft. (2,743 m)
Altimeter30.01 in.Hg (1016 mB)
Relative humidity57 %
Density altitude122 ft. (37 m)
Sea-level pressure101.6 kPa (1016 mB, 30.01 in.Hg)
Max temp last 6 hours17.8°C (64.0°F)
Min temp last 6 hours12.8°C (55.0°F)
Remarks Automated weather observing station with precipitation discriminator
Pressure falling, then rising
Flight conditions Visual Meteorological Conditions
Raw dataKSJC 132353Z 33010KT 10SM FEW035 FEW050 BKN090 16/07 A3001 RMK AO2 SLP161 T01560072 10178 20128 55001
An error has occurred. This application may no longer respond until reloaded. Reload 🗙